sensor_id;sensor_type;location;lat;lon;timestamp;temperature;humidity
19888;DHT22;10106;51.332;12.336;2023-09-19T00:00:36;17.60;99.90
19888;DHT22;10106;51.332;12.336;2023-09-19T00:03:02;17.60;99.90
19888;DHT22;10106;51.332;12.336;2023-09-19T00:05:29;17.50;99.90
19888;DHT22;10106;51.332;12.336;2023-09-19T00:08:00;17.50;99.90
19888;DHT22;10106;51.332;12.336;2023-09-19T00:10:26;17.40;99.90
19888;DHT22;10106;51.332;12.336;2023-09-19T00:12:55;17.40;99.90
19888;DHT22;10106;51.332;12.336;2023-09-19T00:15:23;17.30;99.90
19888;DHT22;10106;51.332;12.336;2023-09-19T00:17:49;17.40;99.90
19888;DHT22;10106;51.332;12.336;2023-09-19T00:20:18;17.30;99.90
19888;DHT22;10106;51.332;12.336;2023-09-19T00:22:44;17.30;99.90
19888;DHT22;10106;51.332;12.336;2023-09-19T00:25:09;17.20;99.90
19888;DHT22;10106;51.332;12.336;2023-09-19T00:27:40;17.20;99.90
19888;DHT22;10106;51.332;12.336;2023-09-19T00:30:06;17.30;99.90
19888;DHT22;10106;51.332;12.336;2023-09-19T00:32:34;17.30;99.90
19888;DHT22;10106;51.332;12.336;2023-09-19T00:35:00;17.20;99.90
19888;DHT22;10106;51.332;12.336;2023-09-19T00:37:25;17.20;99.90
19888;DHT22;10106;51.332;12.336;2023-09-19T00:39:51;17.20;99.90
19888;DHT22;10106;51.332;12.336;2023-09-19T00:42:20;17.20;99.90
19888;DHT22;10106;51.332;12.336;2023-09-19T00:44:46;17.20;99.90
19888;DHT22;10106;51.332;12.336;2023-09-19T00:47:12;17.20;99.90
19888;DHT22;10106;51.332;12.336;2023-09-19T00:49:45;17.20;99.90
19888;DHT22;10106;51.332;12.336;2023-09-19T00:52:16;17.20;99.90
19888;DHT22;10106;51.332;12.336;2023-09-19T00:54:45;17.10;99.90
19888;DHT22;10106;51.332;12.336;2023-09-19T00:57:11;17.20;99.90
19888;DHT22;10106;51.332;12.336;2023-09-19T00:59:37;17.20;99.90
19888;DHT22;10106;51.332;12.336;2023-09-19T01:02:02;17.20;99.90
19888;DHT22;10106;51.332;12.336;2023-09-19T01:04:28;17.10;99.90
19888;DHT22;10106;51.332;12.336;2023-09-19T01:06:54;17.10;99.90
19888;DHT22;10106;51.332;12.336;2023-09-19T01:09:20;17.10;99.90
19888;DHT22;10106;51.332;12.336;2023-09-19T01:11:47;17.00;99.90
19888;DHT22;10106;51.332;12.336;2023-09-19T01:16:59;17.00;99.90
19888;DHT22;10106;51.332;12.336;2023-09-19T01:22:05;17.00;99.90
19888;DHT22;10106;51.332;12.336;2023-09-19T01:29:46;16.90;99.90
19888;DHT22;10106;51.332;12.336;2023-09-19T01:32:17;16.80;99.90
19888;DHT22;10106;51.332;12.336;2023-09-19T01:34:53;16.80;99.90
19888;DHT22;10106;51.332;12.336;2023-09-19T01:37:20;16.70;99.90
19888;DHT22;10106;51.332;12.336;2023-09-19T01:39:56;16.70;99.90
19888;DHT22;10106;51.332;12.336;2023-09-19T01:47:22;16.60;99.90
19888;DHT22;10106;51.332;12.336;2023-09-19T01:49:50;16.60;99.90
19888;DHT22;10106;51.332;12.336;2023-09-19T01:52:18;16.60;99.90
19888;DHT22;10106;51.332;12.336;2023-09-19T01:54:46;16.60;99.90
19888;DHT22;10106;51.332;12.336;2023-09-19T01:59:48;16.60;99.90
19888;DHT22;10106;51.332;12.336;2023-09-19T02:02:17;16.60;99.90
19888;DHT22;10106;51.332;12.336;2023-09-19T02:04:46;16.70;99.90
19888;DHT22;10106;51.332;12.336;2023-09-19T02:07:13;16.70;99.90
19888;DHT22;10106;51.332;12.336;2023-09-19T02:09:42;16.80;99.90
19888;DHT22;10106;51.332;12.336;2023-09-19T02:12:10;16.80;99.90
19888;DHT22;10106;51.332;12.336;2023-09-19T02:14:36;16.90;99.90
19888;DHT22;10106;51.332;12.336;2023-09-19T02:17:02;17.00;99.90
19888;DHT22;10106;51.332;12.336;2023-09-19T02:19:32;17.10;99.90
19888;DHT22;10106;51.332;12.336;2023-09-19T02:21:59;17.20;99.90
19888;DHT22;10106;51.332;12.336;2023-09-19T02:24:25;17.20;99.90
19888;DHT22;10106;51.332;12.336;2023-09-19T02:26:52;17.20;99.90
19888;DHT22;10106;51.332;12.336;2023-09-19T02:29:18;17.20;99.90
19888;DHT22;10106;51.332;12.336;2023-09-19T02:31:43;17.20;99.90
19888;DHT22;10106;51.332;12.336;2023-09-19T02:34:11;17.20;99.90
19888;DHT22;10106;51.332;12.336;2023-09-19T02:36:37;17.20;99.90
19888;DHT22;10106;51.332;12.336;2023-09-19T02:39:03;17.20;99.90
19888;DHT22;10106;51.332;12.336;2023-09-19T02:41:30;17.10;99.90
19888;DHT22;10106;51.332;12.336;2023-09-19T02:43:58;17.20;99.90
19888;DHT22;10106;51.332;12.336;2023-09-19T02:46:24;17.20;99.90
19888;DHT22;10106;51.332;12.336;2023-09-19T02:48:50;17.10;99.90
19888;DHT22;10106;51.332;12.336;2023-09-19T02:51:16;17.10;99.90
19888;DHT22;10106;51.332;12.336;2023-09-19T02:53:41;17.10;99.90
19888;DHT22;10106;51.332;12.336;2023-09-19T02:56:07;17.10;99.90
19888;DHT22;10106;51.332;12.336;2023-09-19T02:58:34;17.10;99.90
19888;DHT22;10106;51.332;12.336;2023-09-19T03:01:07;17.10;99.90
19888;DHT22;10106;51.332;12.336;2023-09-19T03:03:33;17.10;99.90
19888;DHT22;10106;51.332;12.336;2023-09-19T03:05:59;17.20;99.90
19888;DHT22;10106;51.332;12.336;2023-09-19T03:08:24;17.20;99.90
19888;DHT22;10106;51.332;12.336;2023-09-19T03:10:50;17.20;99.90
19888;DHT22;10106;51.332;12.336;2023-09-19T03:13:16;17.20;99.90
19888;DHT22;10106;51.332;12.336;2023-09-19T03:15:42;17.20;99.90
19888;DHT22;10106;51.332;12.336;2023-09-19T03:18:09;17.20;99.90
19888;DHT22;10106;51.332;12.336;2023-09-19T03:20:35;17.20;99.90
19888;DHT22;10106;51.332;12.336;2023-09-19T03:23:01;17.20;99.90
19888;DHT22;10106;51.332;12.336;2023-09-19T03:25:27;17.20;99.90
19888;DHT22;10106;51.332;12.336;2023-09-19T03:27:55;17.30;99.90
19888;DHT22;10106;51.332;12.336;2023-09-19T03:30:23;17.30;99.90
19888;DHT22;10106;51.332;12.336;2023-09-19T03:32:49;17.30;99.90
19888;DHT22;10106;51.332;12.336;2023-09-19T03:35:15;17.30;99.90
19888;DHT22;10106;51.332;12.336;2023-09-19T03:37:41;17.30;99.90
19888;DHT22;10106;51.332;12.336;2023-09-19T03:40:08;17.30;99.90
19888;DHT22;10106;51.332;12.336;2023-09-19T03:42:37;17.30;99.90
19888;DHT22;10106;51.332;12.336;2023-09-19T03:45:03;17.20;99.90
19888;DHT22;10106;51.332;12.336;2023-09-19T03:47:29;17.20;99.90
19888;DHT22;10106;51.332;12.336;2023-09-19T03:49:55;17.20;99.90
19888;DHT22;10106;51.332;12.336;2023-09-19T03:52:20;17.10;99.90
19888;DHT22;10106;51.332;12.336;2023-09-19T03:54:46;17.10;99.90
19888;DHT22;10106;51.332;12.336;2023-09-19T03:57:11;17.10;99.90
19888;DHT22;10106;51.332;12.336;2023-09-19T03:59:38;17.00;99.90
19888;DHT22;10106;51.332;12.336;2023-09-19T04:02:03;17.00;99.90
19888;DHT22;10106;51.332;12.336;2023-09-19T04:04:30;17.00;99.90
19888;DHT22;10106;51.332;12.336;2023-09-19T04:06:55;17.00;99.90
19888;DHT22;10106;51.332;12.336;2023-09-19T04:09:30;17.00;99.90
19888;DHT22;10106;51.332;12.336;2023-09-19T04:11:55;17.00;99.90
19888;DHT22;10106;51.332;12.336;2023-09-19T04:14:21;17.00;99.90
19888;DHT22;10106;51.332;12.336;2023-09-19T04:16:47;17.00;99.90
19888;DHT22;10106;51.332;12.336;2023-09-19T04:19:12;17.00;99.90
19888;DHT22;10106;51.332;12.336;2023-09-19T04:21:39;17.00;99.90
19888;DHT22;10106;51.332;12.336;2023-09-19T04:24:06;16.90;99.90
19888;DHT22;10106;51.332;12.336;2023-09-19T04:26:31;16.90;99.90
19888;DHT22;10106;51.332;12.336;2023-09-19T04:28:58;16.80;99.90
19888;DHT22;10106;51.332;12.336;2023-09-19T04:31:23;16.80;99.90
19888;DHT22;10106;51.332;12.336;2023-09-19T04:33:49;16.80;99.90
19888;DHT22;10106;51.332;12.336;2023-09-19T04:36:15;16.80;99.90
19888;DHT22;10106;51.332;12.336;2023-09-19T04:38:40;16.80;99.90
19888;DHT22;10106;51.332;12.336;2023-09-19T04:41:06;16.80;99.90
19888;DHT22;10106;51.332;12.336;2023-09-19T04:43:32;16.80;99.90
19888;DHT22;10106;51.332;12.336;2023-09-19T04:45:57;16.70;99.90
19888;DHT22;10106;51.332;12.336;2023-09-19T04:48:25;16.70;99.90
19888;DHT22;10106;51.332;12.336;2023-09-19T04:50:51;16.70;99.90
19888;DHT22;10106;51.332;12.336;2023-09-19T04:53:17;16.60;99.90
19888;DHT22;10106;51.332;12.336;2023-09-19T04:55:49;16.60;99.90
19888;DHT22;10106;51.332;12.336;2023-09-19T04:58:15;16.60;99.90
19888;DHT22;10106;51.332;12.336;2023-09-19T05:05:51;16.50;99.90
19888;DHT22;10106;51.332;12.336;2023-09-19T05:08:17;16.60;99.90
19888;DHT22;10106;51.332;12.336;2023-09-19T05:10:43;16.60;99.90
19888;DHT22;10106;51.332;12.336;2023-09-19T05:13:09;16.60;99.90
19888;DHT22;10106;51.332;12.336;2023-09-19T05:15:34;16.70;99.90
19888;DHT22;10106;51.332;12.336;2023-09-19T05:18:01;16.70;99.90
19888;DHT22;10106;51.332;12.336;2023-09-19T05:20:43;16.70;99.90
19888;DHT22;10106;51.332;12.336;2023-09-19T05:23:09;16.70;99.90
19888;DHT22;10106;51.332;12.336;2023-09-19T05:25:38;16.70;99.90
19888;DHT22;10106;51.332;12.336;2023-09-19T05:28:04;16.70;99.90
19888;DHT22;10106;51.332;12.336;2023-09-19T05:30:31;16.80;99.90
19888;DHT22;10106;51.332;12.336;2023-09-19T05:32:58;16.80;99.90
19888;DHT22;10106;51.332;12.336;2023-09-19T05:35:24;16.90;99.90
19888;DHT22;10106;51.332;12.336;2023-09-19T05:37:53;17.10;99.90
19888;DHT22;10106;51.332;12.336;2023-09-19T05:40:19;17.70;99.90
19888;DHT22;10106;51.332;12.336;2023-09-19T05:42:45;18.60;99.90
19888;DHT22;10106;51.332;12.336;2023-09-19T05:45:11;19.00;99.90
19888;DHT22;10106;51.332;12.336;2023-09-19T05:47:44;18.90;99.90
19888;DHT22;10106;51.332;12.336;2023-09-19T05:50:11;18.80;99.90
19888;DHT22;10106;51.332;12.336;2023-09-19T05:52:37;18.60;99.90
19888;DHT22;10106;51.332;12.336;2023-09-19T05:55:04;18.30;99.90
19888;DHT22;10106;51.332;12.336;2023-09-19T05:57:32;18.20;99.90
19888;DHT22;10106;51.332;12.336;2023-09-19T05:59:58;18.10;99.90
19888;DHT22;10106;51.332;12.336;2023-09-19T06:02:23;18.00;99.90
19888;DHT22;10106;51.332;12.336;2023-09-19T06:04:50;18.00;99.90
19888;DHT22;10106;51.332;12.336;2023-09-19T06:07:18;18.20;99.90
19888;DHT22;10106;51.332;12.336;2023-09-19T06:09:44;18.20;99.90
19888;DHT22;10106;51.332;12.336;2023-09-19T06:12:09;18.20;99.90
19888;DHT22;10106;51.332;12.336;2023-09-19T06:14:39;18.20;99.90
19888;DHT22;10106;51.332;12.336;2023-09-19T06:17:15;18.20;99.90
19888;DHT22;10106;51.332;12.336;2023-09-19T06:19:41;18.30;99.90
19888;DHT22;10106;51.332;12.336;2023-09-19T06:22:14;18.80;99.90
19888;DHT22;10106;51.332;12.336;2023-09-19T06:24:40;19.30;99.90
19888;DHT22;10106;51.332;12.336;2023-09-19T06:27:05;19.90;99.90
19888;DHT22;10106;51.332;12.336;2023-09-19T06:29:32;21.00;99.90
19888;DHT22;10106;51.332;12.336;2023-09-19T06:32:02;21.60;99.90
19888;DHT22;10106;51.332;12.336;2023-09-19T06:34:28;22.00;99.90
19888;DHT22;10106;51.332;12.336;2023-09-19T06:36:54;22.60;99.90
19888;DHT22;10106;51.332;12.336;2023-09-19T06:39:20;24.20;99.90
19888;DHT22;10106;51.332;12.336;2023-09-19T06:41:48;26.10;99.90
19888;DHT22;10106;51.332;12.336;2023-09-19T06:44:14;27.50;97.80
19888;DHT22;10106;51.332;12.336;2023-09-19T06:46:40;29.10;92.50
19888;DHT22;10106;51.332;12.336;2023-09-19T06:49:09;30.00;83.20
19888;DHT22;10106;51.332;12.336;2023-09-19T06:51:36;30.40;78.90
19888;DHT22;10106;51.332;12.336;2023-09-19T06:54:01;31.30;72.30
19888;DHT22;10106;51.332;12.336;2023-09-19T06:56:30;31.40;70.00
19888;DHT22;10106;51.332;12.336;2023-09-19T06:58:58;30.00;71.10
19888;DHT22;10106;51.332;12.336;2023-09-19T07:01:24;30.40;70.90
19888;DHT22;10106;51.332;12.336;2023-09-19T07:03:50;31.40;69.70
19888;DHT22;10106;51.332;12.336;2023-09-19T07:06:16;32.50;65.60
19888;DHT22;10106;51.332;12.336;2023-09-19T07:08:43;33.70;62.70
19888;DHT22;10106;51.332;12.336;2023-09-19T07:11:08;33.90;58.40
19888;DHT22;10106;51.332;12.336;2023-09-19T07:13:34;34.30;56.50
19888;DHT22;10106;51.332;12.336;2023-09-19T07:16:04;33.20;55.20
19888;DHT22;10106;51.332;12.336;2023-09-19T07:18:29;32.30;55.00
19888;DHT22;10106;51.332;12.336;2023-09-19T07:20:58;31.70;56.50
19888;DHT22;10106;51.332;12.336;2023-09-19T07:23:31;30.30;58.00
19888;DHT22;10106;51.332;12.336;2023-09-19T07:26:00;30.10;59.70
19888;DHT22;10106;51.332;12.336;2023-09-19T07:28:26;29.90;59.80
19888;DHT22;10106;51.332;12.336;2023-09-19T07:30:52;28.70;61.50
19888;DHT22;10106;51.332;12.336;2023-09-19T07:33:18;27.40;63.80
19888;DHT22;10106;51.332;12.336;2023-09-19T07:35:47;26.10;69.40
19888;DHT22;10106;51.332;12.336;2023-09-19T07:38:13;26.20;73.30
19888;DHT22;10106;51.332;12.336;2023-09-19T07:40:39;28.20;68.70
19888;DHT22;10106;51.332;12.336;2023-09-19T07:43:05;29.00;64.50
19888;DHT22;10106;51.332;12.336;2023-09-19T07:45:32;29.80;61.40
19888;DHT22;10106;51.332;12.336;2023-09-19T07:47:58;30.30;61.20
19888;DHT22;10106;51.332;12.336;2023-09-19T07:50:26;30.70;59.80
19888;DHT22;10106;51.332;12.336;2023-09-19T07:52:52;29.70;59.20
19888;DHT22;10106;51.332;12.336;2023-09-19T07:55:19;27.50;63.30
19888;DHT22;10106;51.332;12.336;2023-09-19T07:57:49;25.80;68.00
19888;DHT22;10106;51.332;12.336;2023-09-19T08:00:15;24.70;75.90
19888;DHT22;10106;51.332;12.336;2023-09-19T08:02:41;24.10;81.40
19888;DHT22;10106;51.332;12.336;2023-09-19T08:05:07;23.90;85.00
19888;DHT22;10106;51.332;12.336;2023-09-19T08:07:40;22.90;90.70
19888;DHT22;10106;51.332;12.336;2023-09-19T08:12:42;22.50;95.60
19888;DHT22;10106;51.332;12.336;2023-09-19T08:17:39;21.40;99.90
19888;DHT22;10106;51.332;12.336;2023-09-19T08:22:31;20.70;99.90
19888;DHT22;10106;51.332;12.336;2023-09-19T08:25:00;20.80;99.90
19888;DHT22;10106;51.332;12.336;2023-09-19T08:27:29;20.70;99.90
19888;DHT22;10106;51.332;12.336;2023-09-19T08:29:54;20.40;99.90
19888;DHT22;10106;51.332;12.336;2023-09-19T08:32:20;20.40;99.90
19888;DHT22;10106;51.332;12.336;2023-09-19T08:34:53;20.40;99.90
19888;DHT22;10106;51.332;12.336;2023-09-19T08:37:19;20.40;99.90
19888;DHT22;10106;51.332;12.336;2023-09-19T08:39:45;20.40;99.90
19888;DHT22;10106;51.332;12.336;2023-09-19T08:42:11;20.30;99.90
19888;DHT22;10106;51.332;12.336;2023-09-19T08:44:38;20.60;99.90
19888;DHT22;10106;51.332;12.336;2023-09-19T08:47:15;21.40;99.90
19888;DHT22;10106;51.332;12.336;2023-09-19T08:52:22;22.50;99.90
19888;DHT22;10106;51.332;12.336;2023-09-19T08:54:49;22.30;99.90
19888;DHT22;10106;51.332;12.336;2023-09-19T08:57:17;22.80;99.90
19888;DHT22;10106;51.332;12.336;2023-09-19T08:59:47;23.50;99.90
19888;DHT22;10106;51.332;12.336;2023-09-19T09:02:13;24.70;99.60
19888;DHT22;10106;51.332;12.336;2023-09-19T09:04:47;25.20;95.40
19888;DHT22;10106;51.332;12.336;2023-09-19T09:07:14;26.30;93.00
19888;DHT22;10106;51.332;12.336;2023-09-19T09:12:17;26.70;88.50
19888;DHT22;10106;51.332;12.336;2023-09-19T09:14:46;26.80;86.90
19888;DHT22;10106;51.332;12.336;2023-09-19T09:17:18;27.60;82.40
19888;DHT22;10106;51.332;12.336;2023-09-19T09:19:46;27.20;82.00
19888;DHT22;10106;51.332;12.336;2023-09-19T09:24:54;27.60;77.90
19888;DHT22;10106;51.332;12.336;2023-09-19T09:27:23;27.70;76.60
19888;DHT22;10106;51.332;12.336;2023-09-19T09:29:49;27.50;76.40
19888;DHT22;10106;51.332;12.336;2023-09-19T09:32:16;27.20;72.10
19888;DHT22;10106;51.332;12.336;2023-09-19T09:34:46;26.80;66.70
19888;DHT22;10106;51.332;12.336;2023-09-19T09:37:16;26.80;64.40
19888;DHT22;10106;51.332;12.336;2023-09-19T09:45:20;26.80;62.60
19888;DHT22;10106;51.332;12.336;2023-09-19T09:47:58;27.10;63.70
19888;DHT22;10106;51.332;12.336;2023-09-19T09:50:28;27.30;64.40
19888;DHT22;10106;51.332;12.336;2023-09-19T09:53:23;26.70;63.60
19888;DHT22;10106;51.332;12.336;2023-09-19T09:56:03;25.90;65.40
19888;DHT22;10106;51.332;12.336;2023-09-19T09:58:52;25.40;67.10
19888;DHT22;10106;51.332;12.336;2023-09-19T10:01:24;25.10;69.60
19888;DHT22;10106;51.332;12.336;2023-09-19T10:03:58;24.80;68.00
19888;DHT22;10106;51.332;12.336;2023-09-19T10:06:25;24.50;68.90
19888;DHT22;10106;51.332;12.336;2023-09-19T10:08:58;24.20;69.50
19888;DHT22;10106;51.332;12.336;2023-09-19T10:12:00;24.20;71.10
19888;DHT22;10106;51.332;12.336;2023-09-19T10:17:05;23.40;73.60
19888;DHT22;10106;51.332;12.336;2023-09-19T10:20:06;23.40;73.90
19888;DHT22;10106;51.332;12.336;2023-09-19T10:30:31;22.80;77.40
19888;DHT22;10106;51.332;12.336;2023-09-19T10:33:01;22.80;77.60
19888;DHT22;10106;51.332;12.336;2023-09-19T10:35:28;22.80;77.30
19888;DHT22;10106;51.332;12.336;2023-09-19T10:37:55;22.90;77.40
19888;DHT22;10106;51.332;12.336;2023-09-19T10:40:22;22.80;77.60
19888;DHT22;10106;51.332;12.336;2023-09-19T10:45:32;23.00;77.00
19888;DHT22;10106;51.332;12.336;2023-09-19T10:48:00;23.00;78.00
19888;DHT22;10106;51.332;12.336;2023-09-19T10:50:31;23.00;78.70
19888;DHT22;10106;51.332;12.336;2023-09-19T10:53:00;23.10;77.70
19888;DHT22;10106;51.332;12.336;2023-09-19T10:55:30;23.50;78.20
19888;DHT22;10106;51.332;12.336;2023-09-19T10:57:57;23.40;75.70
19888;DHT22;10106;51.332;12.336;2023-09-19T11:03:37;23.50;74.10
19888;DHT22;10106;51.332;12.336;2023-09-19T11:06:16;23.20;73.80
19888;DHT22;10106;51.332;12.336;2023-09-19T11:09:01;23.00;73.20
19888;DHT22;10106;51.332;12.336;2023-09-19T11:14:15;23.00;73.80
19888;DHT22;10106;51.332;12.336;2023-09-19T11:17:42;23.10;73.60
19888;DHT22;10106;51.332;12.336;2023-09-19T11:20:28;23.40;74.70
19888;DHT22;10106;51.332;12.336;2023-09-19T11:30:35;23.10;69.00
19888;DHT22;10106;51.332;12.336;2023-09-19T11:43:54;23.00;69.80
19888;DHT22;10106;51.332;12.336;2023-09-19T11:47:00;23.10;70.60
19888;DHT22;10106;51.332;12.336;2023-09-19T11:49:29;23.10;70.70
19888;DHT22;10106;51.332;12.336;2023-09-19T11:52:02;23.20;71.80
19888;DHT22;10106;51.332;12.336;2023-09-19T11:54:33;23.40;71.10
19888;DHT22;10106;51.332;12.336;2023-09-19T11:57:02;23.10;70.30
19888;DHT22;10106;51.332;12.336;2023-09-19T11:59:28;22.90;69.10
19888;DHT22;10106;51.332;12.336;2023-09-19T12:01:55;22.90;69.70
19888;DHT22;10106;51.332;12.336;2023-09-19T12:07:05;23.20;69.80
19888;DHT22;10106;51.332;12.336;2023-09-19T12:09:39;22.90;70.00
19888;DHT22;10106;51.332;12.336;2023-09-19T12:12:06;22.80;71.00
19888;DHT22;10106;51.332;12.336;2023-09-19T12:14:31;23.00;71.20
19888;DHT22;10106;51.332;12.336;2023-09-19T12:16:58;23.00;70.90
19888;DHT22;10106;51.332;12.336;2023-09-19T12:19:26;22.70;71.10
19888;DHT22;10106;51.332;12.336;2023-09-19T12:22:01;22.40;71.50
19888;DHT22;10106;51.332;12.336;2023-09-19T12:24:30;22.20;72.20
19888;DHT22;10106;51.332;12.336;2023-09-19T12:27:03;22.10;72.80
19888;DHT22;10106;51.332;12.336;2023-09-19T12:29:41;22.30;73.80
19888;DHT22;10106;51.332;12.336;2023-09-19T12:32:07;22.40;72.90
19888;DHT22;10106;51.332;12.336;2023-09-19T12:34:33;22.50;72.80
19888;DHT22;10106;51.332;12.336;2023-09-19T12:37:11;22.30;72.40
19888;DHT22;10106;51.332;12.336;2023-09-19T12:39:38;22.20;73.10
19888;DHT22;10106;51.332;12.336;2023-09-19T12:42:04;22.20;73.40
19888;DHT22;10106;51.332;12.336;2023-09-19T12:44:35;22.10;72.60
19888;DHT22;10106;51.332;12.336;2023-09-19T12:47:08;21.90;72.00
19888;DHT22;10106;51.332;12.336;2023-09-19T12:49:34;22.00;72.20
19888;DHT22;10106;51.332;12.336;2023-09-19T12:52:00;22.20;72.70
19888;DHT22;10106;51.332;12.336;2023-09-19T12:54:37;22.40;72.20
19888;DHT22;10106;51.332;12.336;2023-09-19T12:57:04;22.50;72.10
19888;DHT22;10106;51.332;12.336;2023-09-19T12:59:30;22.60;71.70
19888;DHT22;10106;51.332;12.336;2023-09-19T13:02:04;22.70;71.30
19888;DHT22;10106;51.332;12.336;2023-09-19T13:04:32;22.80;70.90
19888;DHT22;10106;51.332;12.336;2023-09-19T13:07:00;22.90;71.50
19888;DHT22;10106;51.332;12.336;2023-09-19T13:09:30;23.00;70.90
19888;DHT22;10106;51.332;12.336;2023-09-19T13:12:04;23.00;70.30
19888;DHT22;10106;51.332;12.336;2023-09-19T13:14:32;23.20;69.60
19888;DHT22;10106;51.332;12.336;2023-09-19T13:17:06;23.20;69.20
19888;DHT22;10106;51.332;12.336;2023-09-19T13:19:48;23.20;70.10
19888;DHT22;10106;51.332;12.336;2023-09-19T13:25:19;22.70;70.00
19888;DHT22;10106;51.332;12.336;2023-09-19T13:27:48;22.60;70.70
19888;DHT22;10106;51.332;12.336;2023-09-19T13:30:16;22.60;71.00
19888;DHT22;10106;51.332;12.336;2023-09-19T13:32:42;22.60;71.50
19888;DHT22;10106;51.332;12.336;2023-09-19T13:35:09;22.60;71.50
19888;DHT22;10106;51.332;12.336;2023-09-19T13:37:35;22.60;71.80
19888;DHT22;10106;51.332;12.336;2023-09-19T13:40:02;22.70;72.20
19888;DHT22;10106;51.332;12.336;2023-09-19T13:42:30;22.70;72.40
19888;DHT22;10106;51.332;12.336;2023-09-19T13:44:58;22.50;72.20
19888;DHT22;10106;51.332;12.336;2023-09-19T13:47:24;22.40;72.60
19888;DHT22;10106;51.332;12.336;2023-09-19T13:49:52;22.50;73.40
19888;DHT22;10106;51.332;12.336;2023-09-19T13:52:18;22.40;73.20
19888;DHT22;10106;51.332;12.336;2023-09-19T13:54:44;22.50;73.50
19888;DHT22;10106;51.332;12.336;2023-09-19T13:57:09;22.50;73.50
19888;DHT22;10106;51.332;12.336;2023-09-19T13:59:35;22.40;73.10
19888;DHT22;10106;51.332;12.336;2023-09-19T14:02:01;22.30;71.90
19888;DHT22;10106;51.332;12.336;2023-09-19T14:04:31;22.40;72.40
19888;DHT22;10106;51.332;12.336;2023-09-19T14:06:57;22.50;70.80
19888;DHT22;10106;51.332;12.336;2023-09-19T14:09:25;22.50;71.00
19888;DHT22;10106;51.332;12.336;2023-09-19T14:11:52;22.50;70.50
19888;DHT22;10106;51.332;12.336;2023-09-19T14:14:18;22.40;70.70
19888;DHT22;10106;51.332;12.336;2023-09-19T14:16:44;22.40;70.40
19888;DHT22;10106;51.332;12.336;2023-09-19T14:19:09;22.40;70.60
19888;DHT22;10106;51.332;12.336;2023-09-19T14:21:35;22.40;70.60
19888;DHT22;10106;51.332;12.336;2023-09-19T14:24:02;22.40;70.30
19888;DHT22;10106;51.332;12.336;2023-09-19T14:26:28;22.40;69.10
19888;DHT22;10106;51.332;12.336;2023-09-19T14:28:54;22.50;69.20
19888;DHT22;10106;51.332;12.336;2023-09-19T14:31:20;22.40;69.80
19888;DHT22;10106;51.332;12.336;2023-09-19T14:33:52;22.40;69.80
19888;DHT22;10106;51.332;12.336;2023-09-19T14:36:18;22.30;69.80
19888;DHT22;10106;51.332;12.336;2023-09-19T14:38:44;22.30;70.40
19888;DHT22;10106;51.332;12.336;2023-09-19T14:41:10;22.30;70.60
19888;DHT22;10106;51.332;12.336;2023-09-19T14:43:35;22.20;71.50
19888;DHT22;10106;51.332;12.336;2023-09-19T14:46:04;22.20;69.50
19888;DHT22;10106;51.332;12.336;2023-09-19T14:48:33;22.10;69.60
19888;DHT22;10106;51.332;12.336;2023-09-19T14:51:02;22.10;69.50
19888;DHT22;10106;51.332;12.336;2023-09-19T14:53:29;22.00;69.80
19888;DHT22;10106;51.332;12.336;2023-09-19T14:55:54;21.90;70.90
19888;DHT22;10106;51.332;12.336;2023-09-19T14:58:21;21.80;70.90
19888;DHT22;10106;51.332;12.336;2023-09-19T15:00:47;21.90;72.10
19888;DHT22;10106;51.332;12.336;2023-09-19T15:03:13;21.70;72.20
19888;DHT22;10106;51.332;12.336;2023-09-19T15:05:42;21.70;71.70
19888;DHT22;10106;51.332;12.336;2023-09-19T15:08:11;21.60;72.50
19888;DHT22;10106;51.332;12.336;2023-09-19T15:10:39;21.50;72.20
19888;DHT22;10106;51.332;12.336;2023-09-19T15:13:04;21.50;72.60
19888;DHT22;10106;51.332;12.336;2023-09-19T15:15:31;21.50;71.70
19888;DHT22;10106;51.332;12.336;2023-09-19T15:55:47;20.80;70.20
19888;DHT22;10106;51.332;12.336;2023-09-19T18:00:17;18.00;89.10
19888;DHT22;10106;51.332;12.336;2023-09-19T18:09:04;17.90;90.80
19888;DHT22;10106;51.332;12.336;2023-09-19T18:28:17;17.50;94.50
19888;DHT22;10106;51.332;12.336;2023-09-19T18:31:08;17.40;95.20
19888;DHT22;10106;51.332;12.336;2023-09-19T18:40:23;17.20;96.70
19888;DHT22;10106;51.332;12.336;2023-09-19T18:43:10;17.10;97.40
19888;DHT22;10106;51.332;12.336;2023-09-19T18:45:38;17.10;97.60
19888;DHT22;10106;51.332;12.336;2023-09-19T18:48:04;17.00;98.30
19888;DHT22;10106;51.332;12.336;2023-09-19T18:50:30;17.00;98.60
19888;DHT22;10106;51.332;12.336;2023-09-19T18:52:58;16.90;98.50
19888;DHT22;10106;51.332;12.336;2023-09-19T18:55:24;17.00;98.40
19888;DHT22;10106;51.332;12.336;2023-09-19T18:57:53;16.90;98.70
19888;DHT22;10106;51.332;12.336;2023-09-19T19:00:18;16.90;99.20
19888;DHT22;10106;51.332;12.336;2023-09-19T19:02:57;16.80;99.20
19888;DHT22;10106;51.332;12.336;2023-09-19T19:50:39;16.40;99.90
19888;DHT22;10106;51.332;12.336;2023-09-19T20:03:01;16.10;99.90
19888;DHT22;10106;51.332;12.336;2023-09-19T21:07:37;16.00;99.90
19888;DHT22;10106;51.332;12.336;2023-09-19T21:13:39;15.80;99.90
19888;DHT22;10106;51.332;12.336;2023-09-19T21:21:57;15.60;99.90
19888;DHT22;10106;51.332;12.336;2023-09-19T21:24:49;15.60;99.90
19888;DHT22;10106;51.332;12.336;2023-09-19T21:27:16;15.50;99.90
19888;DHT22;10106;51.332;12.336;2023-09-19T21:29:45;15.50;99.90
19888;DHT22;10106;51.332;12.336;2023-09-19T21:32:11;15.40;99.90
19888;DHT22;10106;51.332;12.336;2023-09-19T21:34:46;15.40;99.90
19888;DHT22;10106;51.332;12.336;2023-09-19T21:37:15;15.40;99.90
19888;DHT22;10106;51.332;12.336;2023-09-19T21:39:42;15.40;99.90
19888;DHT22;10106;51.332;12.336;2023-09-19T21:42:08;15.30;99.90
19888;DHT22;10106;51.332;12.336;2023-09-19T21:44:33;15.40;99.90
19888;DHT22;10106;51.332;12.336;2023-09-19T21:47:08;15.40;99.90
19888;DHT22;10106;51.332;12.336;2023-09-19T21:49:51;15.40;99.90
19888;DHT22;10106;51.332;12.336;2023-09-19T21:52:49;15.40;99.90
19888;DHT22;10106;51.332;12.336;2023-09-19T22:00:39;15.40;99.90
19888;DHT22;10106;51.332;12.336;2023-09-19T22:03:20;15.40;99.90
19888;DHT22;10106;51.332;12.336;2023-09-19T22:12:19;15.40;99.90
19888;DHT22;10106;51.332;12.336;2023-09-19T22:17:49;15.30;99.90
19888;DHT22;10106;51.332;12.336;2023-09-19T22:23:20;15.30;99.90
19888;DHT22;10106;51.332;12.336;2023-09-19T22:26:10;15.30;99.90